Time;durP1;ratioP1;P1;durP2;ratioP2;P2;SDS_P1;SDS_P2;PMS_P1;PMS_P2;Temp;Humidity;BMP_temperature;BMP_pressure;BME280_temperature;BME280_humidity;BME280_pressure;Samples;Min_cycle;Max_cycle;Signal;HPM_P1;HPM_P2
2023/06/03 00:02:08;;;;;;;9.80;2.80;;;;;;;;;;4951889;28;20047;-58
2023/06/03 00:04:34;;;;;;;6.95;2.08;;;;;;;;;;5108638;23;20050;-59
2023/06/03 00:07:00;;;;;;;7.93;2.47;;;;;;;;;;4892143;29;20494;-59
2023/06/03 00:09:26;;;;;;;7.50;2.33;;;;;;;;;;4898872;29;20557;-59
2023/06/03 00:11:52;;;;;;;7.45;2.10;;;;;;;;;;4913256;29;20052;-59
2023/06/03 00:14:19;;;;;;;7.22;2.45;;;;;;;;;;4896420;29;20450;-61
2023/06/03 00:16:46;;;;;;;7.45;2.25;;;;;;;;;;4906582;29;20090;-61
2023/06/03 00:19:14;;;;;;;6.00;2.28;;;;;;;;;;4914013;29;20666;-58
2023/06/03 00:21:40;;;;;;;7.35;1.95;;;;;;;;;;4910745;29;20586;-59
2023/06/03 00:24:06;;;;;;;6.95;2.33;;;;;;;;;;4915376;29;20098;-59
2023/06/03 00:26:32;;;;;;;7.30;2.67;;;;;;;;;;4917424;29;20536;-58
2023/06/03 00:28:58;;;;;;;6.93;2.35;;;;;;;;;;4916620;29;20521;-59
2023/06/03 00:31:24;;;;;;;5.65;2.30;;;;;;;;;;4913561;29;20048;-57
2023/06/03 00:33:51;;;;;;;8.90;2.63;;;;;;;;;;4915548;29;20047;-60
2023/06/03 00:36:17;;;;;;;9.55;3.25;;;;;;;;;;4981539;23;20504;-61
2023/06/03 00:38:43;;;;;;;5.00;1.80;;;;;;;;;;4961156;28;20177;-63
2023/06/03 00:43:37;;;;;;;6.47;2.28;;;;;;;;;;4957199;28;20047;-59
2023/06/03 00:46:07;;;;;;;5.32;2.03;;;;;;;;;;4953669;28;20093;-60
2023/06/03 00:48:33;;;;;;;5.40;2.10;;;;;;;;;;4938033;28;20722;-60
2023/06/03 00:50:59;;;;;;;5.55;1.88;;;;;;;;;;4927116;28;20046;-59
2023/06/03 00:53:26;;;;;;;6.28;2.05;;;;;;;;;;4935698;28;20103;-60
2023/06/03 00:55:52;;;;;;;6.53;2.00;;;;;;;;;;4944661;28;20043;-60
2023/06/03 00:58:18;;;;;;;5.50;2.03;;;;;;;;;;4942870;28;20114;-60
2023/06/03 01:00:44;;;;;;;5.32;1.60;;;;;;;;;;4949257;28;20031;-60
2023/06/03 01:03:13;;;;;;;5.13;2.00;;;;;;;;;;4946462;28;20050;-59
2023/06/03 01:05:40;;;;;;;6.70;1.65;;;;;;;;;;4945515;28;20063;-58
2023/06/03 01:08:14;;;;;;;5.13;1.90;;;;;;;;;;4928979;28;20054;-58
2023/06/03 01:10:55;;;;;;;5.45;1.77;;;;;;;;;;5030697;23;20078;-55
2023/06/03 01:13:26;;;;;;;4.93;2.20;;;;;;;;;;4981877;28;20038;-56
2023/06/03 01:15:54;;;;;;;4.90;1.80;;;;;;;;;;4978239;28;20756;-56
2023/06/03 01:18:21;;;;;;;5.78;2.20;;;;;;;;;;4975863;28;20042;-58
2023/06/03 01:20:48;;;;;;;5.82;1.70;;;;;;;;;;4976377;28;20759;-57
2023/06/03 01:23:14;;;;;;;5.53;2.10;;;;;;;;;;4961627;28;20047;-57
2023/06/03 01:25:41;;;;;;;5.63;1.77;;;;;;;;;;4961299;28;20114;-57
2023/06/03 01:28:07;;;;;;;9.63;1.83;;;;;;;;;;4957293;28;20049;-57
2023/06/03 01:30:34;;;;;;;8.20;2.05;;;;;;;;;;4961856;28;20093;-57
2023/06/03 01:33:01;;;;;;;5.82;1.80;;;;;;;;;;4957643;28;20512;-56
2023/06/03 01:35:28;;;;;;;6.05;1.98;;;;;;;;;;4941924;28;20034;-57
2023/06/03 01:37:55;;;;;;;5.65;1.70;;;;;;;;;;4966229;28;20718;-56
2023/06/03 01:40:21;;;;;;;8.27;2.47;;;;;;;;;;4965309;28;20628;-56
2023/06/03 01:42:47;;;;;;;5.50;1.65;;;;;;;;;;4947034;28;20562;-54
2023/06/03 01:45:13;;;;;;;7.90;1.95;;;;;;;;;;4958631;28;20100;-57
2023/06/03 01:47:39;;;;;;;4.38;1.83;;;;;;;;;;4952869;28;20053;-56
2023/06/03 01:50:06;;;;;;;6.07;2.30;;;;;;;;;;4960342;28;20770;-56
2023/06/03 01:52:32;;;;;;;6.90;2.60;;;;;;;;;;4967777;28;20048;-57
2023/06/03 01:54:58;;;;;;;7.03;3.40;;;;;;;;;;4966009;28;20390;-57
2023/06/03 01:57:24;;;;;;;8.63;3.15;;;;;;;;;;4966540;28;20414;-56
2023/06/03 01:59:52;;;;;;;6.50;2.38;;;;;;;;;;4973179;28;20046;-57
2023/06/03 02:02:18;;;;;;;5.60;1.75;;;;;;;;;;4955581;28;20047;-57
2023/06/03 02:04:45;;;;;;;6.28;2.30;;;;;;;;;;4961687;28;20369;-56
2023/06/03 02:07:11;;;;;;;5.13;1.80;;;;;;;;;;4942770;28;20057;-55
2023/06/03 02:09:37;;;;;;;5.20;1.80;;;;;;;;;;4956047;28;20506;-57
2023/06/03 02:12:04;;;;;;;5.80;2.15;;;;;;;;;;4975743;28;20071;-56
2023/06/03 02:14:34;;;;;;;6.72;1.95;;;;;;;;;;4945481;28;20065;-57
2023/06/03 02:17:01;;;;;;;5.18;1.65;;;;;;;;;;4951655;28;20499;-56
2023/06/03 02:19:28;;;;;;;5.85;2.17;;;;;;;;;;4954915;28;20051;-56
2023/06/03 02:21:57;;;;;;;5.07;2.03;;;;;;;;;;4961600;28;20570;-56
2023/06/03 02:24:24;;;;;;;4.32;1.75;;;;;;;;;;4956267;28;20118;-57
2023/06/03 02:26:50;;;;;;;6.00;1.92;;;;;;;;;;4957186;28;20114;-55
2023/06/03 02:29:19;;;;;;;5.15;1.80;;;;;;;;;;4943676;28;20042;-56
2023/06/03 02:31:49;;;;;;;6.18;1.65;;;;;;;;;;4926019;28;20154;-56
2023/06/03 02:34:15;;;;;;;4.75;1.50;;;;;;;;;;4964189;28;20050;-57
2023/06/03 02:36:43;;;;;;;5.57;1.45;;;;;;;;;;4960001;28;20034;-56
2023/06/03 02:39:10;;;;;;;6.05;1.40;;;;;;;;;;4958635;28;20077;-56
2023/06/03 02:41:36;;;;;;;5.45;1.58;;;;;;;;;;4965089;28;20042;-57
2023/06/03 02:44:03;;;;;;;4.68;1.48;;;;;;;;;;4972843;28;20509;-57
2023/06/03 02:46:29;;;;;;;4.82;1.80;;;;;;;;;;4929397;28;20149;-57
2023/06/03 02:48:56;;;;;;;5.07;1.80;;;;;;;;;;4956521;28;20031;-56
2023/06/03 02:51:22;;;;;;;4.38;1.38;;;;;;;;;;4947366;28;20100;-57
2023/06/03 02:53:48;;;;;;;3.75;1.30;;;;;;;;;;4967026;28;20097;-58
2023/06/03 02:56:14;;;;;;;6.18;1.85;;;;;;;;;;4960363;28;20053;-57
2023/06/03 02:58:40;;;;;;;4.47;1.60;;;;;;;;;;4961431;28;20221;-57
2023/06/03 03:01:06;;;;;;;5.03;1.45;;;;;;;;;;4959098;28;20085;-56
2023/06/03 03:03:36;;;;;;;7.18;1.60;;;;;;;;;;4941322;28;20038;-55
2023/06/03 03:06:06;;;;;;;4.80;1.40;;;;;;;;;;4944566;28;20050;-57
2023/06/03 03:08:33;;;;;;;5.28;1.65;;;;;;;;;;4949942;28;20042;-57
2023/06/03 03:10:59;;;;;;;5.13;1.60;;;;;;;;;;4941260;28;20039;-57
2023/06/03 03:13:25;;;;;;;4.60;1.63;;;;;;;;;;4957237;28;20046;-56
2023/06/03 03:15:51;;;;;;;3.67;1.38;;;;;;;;;;4965361;28;20042;-57
2023/06/03 03:18:17;;;;;;;4.20;1.48;;;;;;;;;;4961720;28;20152;-57
2023/06/03 03:20:44;;;;;;;4.68;1.65;;;;;;;;;;4962402;28;20050;-57
2023/06/03 03:23:13;;;;;;;5.47;1.58;;;;;;;;;;4960753;28;20042;-58
2023/06/03 03:25:40;;;;;;;4.47;1.70;;;;;;;;;;4963606;28;20800;-58
2023/06/03 03:28:06;;;;;;;3.95;1.45;;;;;;;;;;4959746;28;20381;-58
2023/06/03 03:30:32;;;;;;;4.05;1.42;;;;;;;;;;4963568;28;20501;-57
2023/06/03 03:32:59;;;;;;;5.45;1.90;;;;;;;;;;4940527;28;20047;-58
2023/06/03 03:35:25;;;;;;;5.07;1.50;;;;;;;;;;4961592;28;20049;-58
2023/06/03 03:38:09;;;;;;;5.03;1.30;;;;;;;;;;4963703;28;20427;-59
2023/06/03 03:40:36;;;;;;;4.60;1.83;;;;;;;;;;4969589;28;20121;-57
2023/06/03 03:43:02;;;;;;;4.72;1.40;;;;;;;;;;4959066;28;20834;-57
2023/06/03 03:45:35;;;;;;;4.80;1.38;;;;;;;;;;4960410;28;20085;-58
2023/06/03 03:48:12;;;;;;;4.70;1.45;;;;;;;;;;4955499;28;20101;-59
2023/06/03 03:50:40;;;;;;;3.80;1.40;;;;;;;;;;4960359;28;20043;-57
2023/06/03 03:53:08;;;;;;;5.07;1.48;;;;;;;;;;4957548;28;20145;-57
2023/06/03 03:55:39;;;;;;;4.55;1.45;;;;;;;;;;4959371;28;20097;-57
2023/06/03 03:58:08;;;;;;;4.32;1.50;;;;;;;;;;4949022;28;20052;-58
2023/06/03 04:00:34;;;;;;;5.93;1.40;;;;;;;;;;4945183;28;20057;-57
2023/06/03 04:03:00;;;;;;;6.18;1.60;;;;;;;;;;4972126;28;20128;-58
2023/06/03 04:05:26;;;;;;;5.45;1.70;;;;;;;;;;4960688;28;20620;-58
2023/06/03 04:07:53;;;;;;;5.65;1.60;;;;;;;;;;4964219;28;20073;-58
2023/06/03 04:10:22;;;;;;;4.65;1.40;;;;;;;;;;4940089;28;20054;-57
2023/06/03 04:12:48;;;;;;;4.13;1.40;;;;;;;;;;4957753;28;20053;-56
2023/06/03 04:15:16;;;;;;;5.22;1.35;;;;;;;;;;4949124;28;20198;-58
2023/06/03 04:17:44;;;;;;;5.10;1.42;;;;;;;;;;4962912;28;20045;-58
2023/06/03 04:20:38;;;;;;;4.18;1.27;;;;;;;;;;4963824;28;20049;-58
2023/06/03 04:23:07;;;;;;;8.05;1.80;;;;;;;;;;4958406;28;20061;-58
2023/06/03 04:25:33;;;;;;;6.70;1.60;;;;;;;;;;4958921;28;20408;-58
2023/06/03 04:27:59;;;;;;;4.32;1.65;;;;;;;;;;4961335;28;20039;-56
2023/06/03 04:30:25;;;;;;;4.57;1.40;;;;;;;;;;4965281;28;20492;-57
2023/06/03 04:32:51;;;;;;;6.10;1.42;;;;;;;;;;4959719;28;20740;-58
2023/06/03 04:35:17;;;;;;;5.25;1.48;;;;;;;;;;4965988;28;20654;-57
2023/06/03 04:37:44;;;;;;;5.63;1.50;;;;;;;;;;4946716;28;20056;-58
2023/06/03 04:40:10;;;;;;;4.45;1.40;;;;;;;;;;4949464;28;20047;-58
2023/06/03 04:42:36;;;;;;;4.95;1.48;;;;;;;;;;4957701;28;20479;-57
2023/06/03 04:45:03;;;;;;;4.25;1.60;;;;;;;;;;4960573;28;20038;-58
2023/06/03 04:47:29;;;;;;;4.65;1.63;;;;;;;;;;4946776;28;21955;-57
2023/06/03 04:49:55;;;;;;;3.90;1.40;;;;;;;;;;4959787;28;20046;-58
2023/06/03 04:52:23;;;;;;;3.85;1.35;;;;;;;;;;4945323;28;21416;-58
2023/06/03 04:54:49;;;;;;;4.93;1.77;;;;;;;;;;4944376;28;20775;-58
2023/06/03 04:57:15;;;;;;;4.70;1.90;;;;;;;;;;4964838;28;20053;-58
2023/06/03 04:59:43;;;;;;;4.30;1.50;;;;;;;;;;4959930;28;20046;-57
2023/06/03 05:02:10;;;;;;;4.70;1.30;;;;;;;;;;4968702;28;20118;-58
2023/06/03 05:04:37;;;;;;;4.63;1.70;;;;;;;;;;4965354;28;20493;-57
2023/06/03 05:07:03;;;;;;;4.82;1.60;;;;;;;;;;4942812;28;20090;-58
2023/06/03 05:09:29;;;;;;;5.22;1.80;;;;;;;;;;4963078;28;20508;-59
2023/06/03 05:11:56;;;;;;;4.38;1.40;;;;;;;;;;4959500;28;20042;-58
2023/06/03 05:14:22;;;;;;;5.95;1.50;;;;;;;;;;4962200;28;20051;-58
2023/06/03 05:16:48;;;;;;;4.68;1.50;;;;;;;;;;4958649;28;20039;-58
2023/06/03 05:19:14;;;;;;;5.35;1.73;;;;;;;;;;4960079;28;20046;-58
2023/06/03 05:21:40;;;;;;;4.70;1.67;;;;;;;;;;4960532;28;20227;-59
2023/06/03 05:24:06;;;;;;;4.70;1.70;;;;;;;;;;4935034;28;20218;-58
2023/06/03 05:26:32;;;;;;;4.97;2.00;;;;;;;;;;4957632;28;20074;-57
2023/06/03 05:28:58;;;;;;;4.75;1.70;;;;;;;;;;4965768;28;20038;-58
2023/06/03 05:31:24;;;;;;;6.20;1.73;;;;;;;;;;4941417;28;20051;-58
2023/06/03 05:33:50;;;;;;;4.53;1.40;;;;;;;;;;4971337;28;20046;-57
2023/06/03 05:36:16;;;;;;;4.35;1.40;;;;;;;;;;4959519;28;20810;-58
2023/06/03 05:38:43;;;;;;;4.50;1.55;;;;;;;;;;4961825;28;20140;-58
2023/06/03 05:41:09;;;;;;;5.18;1.60;;;;;;;;;;4941902;28;20579;-56
2023/06/03 05:43:35;;;;;;;6.20;1.70;;;;;;;;;;4956819;28;20042;-58
2023/06/03 05:46:01;;;;;;;5.00;1.73;;;;;;;;;;4961470;28;20038;-57
2023/06/03 05:48:27;;;;;;;4.50;1.60;;;;;;;;;;4942254;28;20128;-56
2023/06/03 05:50:54;;;;;;;4.60;1.48;;;;;;;;;;4962875;28;20669;-57
2023/06/03 05:53:22;;;;;;;4.97;1.65;;;;;;;;;;4958925;28;20074;-58
2023/06/03 05:55:48;;;;;;;4.80;1.60;;;;;;;;;;4945067;28;20046;-57
2023/06/03 05:58:14;;;;;;;4.30;1.63;;;;;;;;;;4958879;28;20046;-57
2023/06/03 06:00:41;;;;;;;4.97;1.63;;;;;;;;;;4956526;28;20082;-57
2023/06/03 06:03:07;;;;;;;5.65;1.60;;;;;;;;;;4946996;28;20101;-57
2023/06/03 06:05:33;;;;;;;5.57;1.83;;;;;;;;;;4950670;28;20583;-58
2023/06/03 06:07:59;;;;;;;4.32;1.88;;;;;;;;;;4958141;28;20110;-56
2023/06/03 06:10:25;;;;;;;4.95;1.80;;;;;;;;;;4959031;28;20062;-58
2023/06/03 06:12:51;;;;;;;5.20;1.92;;;;;;;;;;4960108;28;20104;-58
2023/06/03 06:15:17;;;;;;;4.40;1.70;;;;;;;;;;4958675;28;20050;-57
2023/06/03 06:17:44;;;;;;;4.40;1.48;;;;;;;;;;4959891;28;20155;-57
2023/06/03 06:20:11;;;;;;;4.75;1.45;;;;;;;;;;4959722;28;20050;-57
2023/06/03 06:22:37;;;;;;;5.57;1.48;;;;;;;;;;4968531;28;20038;-57
2023/06/03 06:25:08;;;;;;;4.78;2.05;;;;;;;;;;4958009;28;20101;-58
2023/06/03 06:27:34;;;;;;;4.57;1.63;;;;;;;;;;4954626;28;20121;-57
2023/06/03 06:30:02;;;;;;;5.20;1.45;;;;;;;;;;4957949;28;20081;-57
2023/06/03 06:32:29;;;;;;;4.60;1.70;;;;;;;;;;4954319;28;20058;-58
2023/06/03 06:34:55;;;;;;;4.20;1.40;;;;;;;;;;4959023;28;20041;-57
2023/06/03 06:37:21;;;;;;;3.72;1.20;;;;;;;;;;4937660;28;20868;-58
2023/06/03 06:39:47;;;;;;;5.80;1.70;;;;;;;;;;4956491;28;20042;-57
2023/06/03 06:42:17;;;;;;;3.85;1.35;;;;;;;;;;4942747;28;20046;-58
2023/06/03 06:44:47;;;;;;;5.00;1.80;;;;;;;;;;4961353;28;20505;-57
2023/06/03 06:47:21;;;;;;;6.70;1.65;;;;;;;;;;4955417;28;20071;-57
2023/06/03 06:49:48;;;;;;;4.75;1.55;;;;;;;;;;4954874;28;20038;-57
2023/06/03 06:52:14;;;;;;;5.93;1.40;;;;;;;;;;4953498;28;20058;-57
2023/06/03 06:54:41;;;;;;;3.85;1.30;;;;;;;;;;4957921;28;20134;-58
2023/06/03 06:57:07;;;;;;;4.35;1.30;;;;;;;;;;4936429;28;20046;-58
2023/06/03 06:59:33;;;;;;;3.58;1.05;;;;;;;;;;4958385;28;20073;-58
2023/06/03 07:01:59;;;;;;;3.78;1.30;;;;;;;;;;4936773;28;20800;-58
2023/06/03 07:04:25;;;;;;;4.75;1.58;;;;;;;;;;4958655;28;20044;-58
2023/06/03 07:06:51;;;;;;;5.38;1.23;;;;;;;;;;4940872;28;20051;-58
2023/06/03 07:09:18;;;;;;;4.00;1.30;;;;;;;;;;4957432;28;20049;-59
2023/06/03 07:11:44;;;;;;;4.53;1.20;;;;;;;;;;4956395;28;20462;-58
2023/06/03 07:14:10;;;;;;;5.22;1.70;;;;;;;;;;4953618;28;20042;-58
2023/06/03 07:16:37;;;;;;;3.97;1.40;;;;;;;;;;4954063;28;20093;-58
2023/06/03 07:19:04;;;;;;;4.95;1.40;;;;;;;;;;4954073;28;20035;-57
2023/06/03 07:21:30;;;;;;;6.93;2.20;;;;;;;;;;4956833;28;20304;-57
2023/06/03 07:23:57;;;;;;;6.78;1.73;;;;;;;;;;4959843;28;20441;-56
2023/06/03 07:26:25;;;;;;;5.03;1.60;;;;;;;;;;4936298;28;20039;-58
2023/06/03 07:28:52;;;;;;;6.88;1.40;;;;;;;;;;4955635;28;20050;-57
2023/06/03 07:31:18;;;;;;;4.70;1.52;;;;;;;;;;4930299;28;20053;-58
2023/06/03 07:34:04;;;;;;;8.05;1.67;;;;;;;;;;4953151;28;20109;-57
2023/06/03 07:36:30;;;;;;;5.80;1.50;;;;;;;;;;4950604;28;20050;-57
2023/06/03 07:38:59;;;;;;;6.55;1.88;;;;;;;;;;4955343;28;20046;-57
2023/06/03 07:41:45;;;;;;;5.18;1.77;;;;;;;;;;4937488;28;20472;-58
2023/06/03 07:44:12;;;;;;;5.53;1.40;;;;;;;;;;4956391;28;20338;-57
2023/06/03 07:46:38;;;;;;;4.68;1.52;;;;;;;;;;4936354;28;20389;-57
2023/06/03 07:49:04;;;;;;;4.70;1.40;;;;;;;;;;4956693;28;20042;-57
2023/06/03 07:51:30;;;;;;;6.05;1.42;;;;;;;;;;4935458;28;20478;-58
2023/06/03 07:53:56;;;;;;;5.75;1.48;;;;;;;;;;4942774;28;20501;-58
2023/06/03 07:56:22;;;;;;;5.90;1.55;;;;;;;;;;4960641;28;20157;-57
2023/06/03 07:58:48;;;;;;;5.15;1.73;;;;;;;;;;4958321;28;20039;-58
2023/06/03 08:01:16;;;;;;;4.95;1.45;;;;;;;;;;4950149;28;20444;-56
2023/06/03 08:03:43;;;;;;;5.53;1.25;;;;;;;;;;4950422;28;20047;-57
2023/06/03 08:06:09;;;;;;;5.15;1.30;;;;;;;;;;4949415;28;20043;-57
2023/06/03 08:08:35;;;;;;;5.68;1.25;;;;;;;;;;4933534;28;20092;-58
2023/06/03 08:11:01;;;;;;;4.95;1.48;;;;;;;;;;4953609;28;20042;-58
2023/06/03 08:13:27;;;;;;;4.18;1.30;;;;;;;;;;4932405;28;20469;-58
2023/06/03 08:15:53;;;;;;;3.78;1.33;;;;;;;;;;4932159;28;20105;-57
2023/06/03 08:18:36;;;;;;;4.97;1.40;;;;;;;;;;4955364;28;20046;-57
2023/06/03 08:21:03;;;;;;;4.80;1.30;;;;;;;;;;4953159;28;20513;-56
2023/06/03 08:23:30;;;;;;;4.55;1.13;;;;;;;;;;4955143;28;20500;-57
2023/06/03 08:25:59;;;;;;;4.07;1.17;;;;;;;;;;4950307;28;20047;-57
2023/06/03 08:28:25;;;;;;;12.88;1.98;;;;;;;;;;4952939;28;20039;-58
2023/06/03 08:30:51;;;;;;;5.50;1.52;;;;;;;;;;4936868;28;20291;-58
2023/06/03 08:33:17;;;;;;;3.35;1.20;;;;;;;;;;4952861;28;20057;-58
2023/06/03 08:35:44;;;;;;;4.63;1.27;;;;;;;;;;4953718;28;20553;-58
2023/06/03 08:38:11;;;;;;;5.00;1.80;;;;;;;;;;4949515;28;20528;-58
2023/06/03 08:40:40;;;;;;;4.32;1.48;;;;;;;;;;4950222;28;20034;-57
2023/06/03 08:43:06;;;;;;;3.63;1.20;;;;;;;;;;4951277;28;20038;-57
2023/06/03 08:45:40;;;;;;;6.15;1.52;;;;;;;;;;4934309;28;20220;-57
2023/06/03 08:48:07;;;;;;;5.30;1.17;;;;;;;;;;4955998;28;20046;-57
2023/06/03 08:50:34;;;;;;;3.85;1.60;;;;;;;;;;4955500;28;20675;-57
2023/06/03 08:53:04;;;;;;;4.55;1.50;;;;;;;;;;4935147;28;20100;-57
2023/06/03 08:55:30;;;;;;;3.90;1.20;;;;;;;;;;4954883;28;20866;-57
2023/06/03 08:58:15;;;;;;;4.53;1.15;;;;;;;;;;4935188;28;20065;-57
2023/06/03 09:00:43;;;;;;;4.53;1.40;;;;;;;;;;4953285;28;20043;-57
2023/06/03 09:03:11;;;;;;;3.70;1.00;;;;;;;;;;4955083;28;20038;-57
2023/06/03 09:05:38;;;;;;;3.90;1.20;;;;;;;;;;4962049;28;20077;-57
2023/06/03 09:08:05;;;;;;;5.25;1.55;;;;;;;;;;4930589;28;20426;-57
2023/06/03 09:10:32;;;;;;;3.42;1.10;;;;;;;;;;4939437;28;20050;-58
2023/06/03 09:12:58;;;;;;;3.78;1.20;;;;;;;;;;4955056;28;20113;-57
2023/06/03 09:15:25;;;;;;;3.72;1.38;;;;;;;;;;4959911;28;20835;-59
2023/06/03 09:17:51;;;;;;;4.32;1.10;;;;;;;;;;4955584;28;20275;-57
2023/06/03 09:20:17;;;;;;;5.75;1.65;;;;;;;;;;4959950;28;20399;-57
2023/06/03 09:22:44;;;;;;;6.20;1.30;;;;;;;;;;4956859;28;20051;-57
2023/06/03 09:25:10;;;;;;;4.95;1.20;;;;;;;;;;4957481;28;20362;-57
2023/06/03 09:27:36;;;;;;;7.35;1.83;;;;;;;;;;4956705;28;20088;-57
2023/06/03 09:30:03;;;;;;;8.70;2.50;;;;;;;;;;4954001;28;20242;-56
2023/06/03 09:32:33;;;;;;;4.75;1.40;;;;;;;;;;4958434;28;20788;-57
2023/06/03 09:35:04;;;;;;;4.10;1.20;;;;;;;;;;4957765;28;20089;-57
2023/06/03 09:37:30;;;;;;;4.55;1.30;;;;;;;;;;4941191;28;20053;-57
2023/06/03 09:39:56;;;;;;;4.47;1.20;;;;;;;;;;4954092;28;20138;-56
2023/06/03 09:42:22;;;;;;;6.45;1.63;;;;;;;;;;4953202;28;20761;-58
2023/06/03 09:44:49;;;;;;;3.55;1.17;;;;;;;;;;4946491;28;20042;-57
2023/06/03 09:47:16;;;;;;;8.05;1.45;;;;;;;;;;4941909;28;20055;-56
2023/06/03 09:50:02;;;;;;;3.67;1.10;;;;;;;;;;4963129;28;20565;-57
2023/06/03 09:52:32;;;;;;;3.67;1.30;;;;;;;;;;4935850;28;20128;-58
2023/06/03 09:55:05;;;;;;;4.28;1.38;;;;;;;;;;4955181;28;20042;-57
2023/06/03 09:57:31;;;;;;;5.43;1.48;;;;;;;;;;4938932;28;20188;-57
2023/06/03 10:00:04;;;;;;;3.20;1.08;;;;;;;;;;4952127;28;20069;-57
2023/06/03 10:02:30;;;;;;;5.00;1.20;;;;;;;;;;4949221;23;20509;-60
2023/06/03 10:04:57;;;;;;;7.32;1.73;;;;;;;;;;4926136;29;20047;-59
2023/06/03 10:07:23;;;;;;;6.45;1.20;;;;;;;;;;4928389;29;20094;-60
2023/06/03 10:09:49;;;;;;;3.30;1.10;;;;;;;;;;4926466;29;20039;-59
2023/06/03 10:12:16;;;;;;;4.43;1.30;;;;;;;;;;4921400;29;20743;-60
2023/06/03 10:14:48;;;;;;;4.65;1.73;;;;;;;;;;4902552;29;20157;-60
2023/06/03 10:17:15;;;;;;;3.17;1.08;;;;;;;;;;4920353;29;20463;-60
2023/06/03 10:19:42;;;;;;;3.70;1.20;;;;;;;;;;4918533;29;20036;-59
2023/06/03 10:22:09;;;;;;;4.10;1.13;;;;;;;;;;4907945;29;20458;-59
2023/06/03 10:24:38;;;;;;;4.57;1.20;;;;;;;;;;4898297;29;20055;-59
2023/06/03 10:27:05;;;;;;;5.30;1.50;;;;;;;;;;4914100;29;20051;-59
2023/06/03 10:29:32;;;;;;;3.90;1.30;;;;;;;;;;4898284;29;20356;-60
2023/06/03 10:32:00;;;;;;;3.53;1.20;;;;;;;;;;4917969;29;20149;-59
2023/06/03 10:34:28;;;;;;;3.72;1.10;;;;;;;;;;4901407;23;1396583;-62
2023/06/03 10:36:58;;;;;;;3.80;1.13;;;;;;;;;;4931803;29;20524;-62
2023/06/03 10:39:25;;;;;;;3.08;1.10;;;;;;;;;;4938540;28;20090;-62
2023/06/03 10:41:57;;;;;;;4.72;1.10;;;;;;;;;;4940920;28;20161;-62
2023/06/03 10:44:24;;;;;;;3.92;1.20;;;;;;;;;;4935779;28;20509;-61
2023/06/03 10:46:53;;;;;;;5.80;1.20;;;;;;;;;;4907502;28;20544;-62
2023/06/03 10:49:19;;;;;;;4.00;1.17;;;;;;;;;;4926807;28;20047;-62
2023/06/03 10:51:55;;;;;;;4.53;1.23;;;;;;;;;;4923878;28;20043;-62
2023/06/03 10:54:30;;;;;;;3.22;1.10;;;;;;;;;;4902316;29;20051;-62
2023/06/03 10:57:15;;;;;;;6.78;1.30;;;;;;;;;;4922594;28;20039;-61
2023/06/03 10:59:45;;;;;;;3.55;1.02;;;;;;;;;;4892952;28;20051;-61
2023/06/03 11:02:14;;;;;;;4.63;1.52;;;;;;;;;;4917767;28;20142;-62
2023/06/03 11:04:40;;;;;;;4.15;1.13;;;;;;;;;;4919598;28;20238;-62
2023/06/03 11:07:26;;;;;;;5.05;1.55;;;;;;;;;;4917260;28;20118;-62
2023/06/03 11:09:54;;;;;;;5.05;1.60;;;;;;;;;;4921395;28;20043;-61
2023/06/03 11:12:21;;;;;;;3.90;1.20;;;;;;;;;;4921475;28;20053;-62
2023/06/03 11:14:48;;;;;;;4.53;1.25;;;;;;;;;;4922142;28;20107;-62
2023/06/03 11:17:15;;;;;;;3.45;1.10;;;;;;;;;;4923988;28;20047;-62
2023/06/03 11:19:51;;;;;;;4.28;1.00;;;;;;;;;;4919930;28;20083;-62
2023/06/03 11:22:31;;;;;;;3.72;1.52;;;;;;;;;;4929582;28;20043;-62
2023/06/03 11:25:00;;;;;;;3.90;1.30;;;;;;;;;;4926277;28;20436;-62
2023/06/03 11:27:31;;;;;;;4.70;1.20;;;;;;;;;;4935551;28;20047;-62
2023/06/03 11:30:04;;;;;;;5.22;1.52;;;;;;;;;;4987137;23;20051;-65
2023/06/03 11:32:37;;;;;;;6.18;1.40;;;;;;;;;;4967737;28;20049;-65
2023/06/03 11:35:06;;;;;;;4.32;1.20;;;;;;;;;;4969166;28;20066;-65
2023/06/03 11:37:43;;;;;;;2.92;1.02;;;;;;;;;;4971748;28;20035;-65
2023/06/03 11:40:20;;;;;;;4.72;1.20;;;;;;;;;;4954366;28;20036;-65
2023/06/03 11:42:55;;;;;;;9.38;1.70;;;;;;;;;;4960359;28;20190;-64
2023/06/03 11:45:27;;;;;;;2.97;1.00;;;;;;;;;;4959277;23;20455;-87
2023/06/03 11:47:56;;;;;;;4.88;1.15;;;;;;;;;;4924016;28;20541;-86
2023/06/03 11:50:26;;;;;;;3.40;1.20;;;;;;;;;;4942876;28;20047;-87
2023/06/03 11:52:53;;;;;;;4.15;1.30;;;;;;;;;;4920946;28;20053;-86
2023/06/03 11:55:29;;;;;;;4.85;1.30;;;;;;;;;;4909872;29;20048;-85
2023/06/03 11:58:00;;;;;;;6.85;1.40;;;;;;;;;;4907471;29;20054;-86
2023/06/03 12:02:59;;;;;;;4.05;1.05;;;;;;;;;;4927649;29;20055;-60
2023/06/03 12:05:27;;;;;;;4.25;1.30;;;;;;;;;;4943416;29;20067;-60
2023/06/03 12:07:54;;;;;;;4.38;1.20;;;;;;;;;;4942874;29;20053;-60
2023/06/03 12:10:20;;;;;;;4.32;1.10;;;21.70;99.90;;;;;;4943211;29;20606;-60
2023/06/03 12:12:55;;;;;;;4.05;1.00;;;;;;;;;;4932982;28;20047;-59
2023/06/03 12:15:22;;;;;;;3.50;1.20;;;;;;;;;;4923280;29;20054;-60
2023/06/03 12:17:49;;;;;;;3.00;0.90;;;;;;;;;;4910661;29;20039;-60
2023/06/03 12:20:26;;;;;;;5.75;1.20;;;;;;;;;;4916854;29;20561;-60
2023/06/03 12:23:03;;;;;;;4.78;1.27;;;22.60;99.90;;;;;;4908589;29;20047;-60
2023/06/03 12:25:30;;;;;;;3.35;1.13;;;23.20;99.90;;;;;;4922847;29;20058;-61
2023/06/03 12:27:56;;;;;;;3.47;1.10;;;23.20;99.90;;;;;;4903262;29;20039;-60
2023/06/03 12:30:33;;;;;;;5.78;1.60;;;23.50;99.90;;;;;;4935418;29;20513;-60
2023/06/03 12:33:00;;;;;;;4.75;1.23;;;23.70;99.90;;;;;;4926474;29;20050;-61
2023/06/03 12:35:34;;;;;;;6.35;1.40;;;24.10;99.90;;;;;;4936971;28;20043;-60
2023/06/03 12:38:07;;;;;;;4.00;1.00;;;25.80;99.90;;;;;;4936551;29;20118;-61
2023/06/03 12:40:35;;;;;;;3.78;1.15;;;28.40;99.90;;;;;;4939489;29;20043;-60
2023/06/03 12:43:04;;;;;;;3.42;1.10;;;31.10;99.70;;;;;;4919781;28;20043;-59
2023/06/03 12:45:30;;;;;;;2.67;1.00;;;32.70;87.50;;;;;;4927045;29;20151;-59
2023/06/03 12:47:55;;;;;;;5.22;1.20;;;34.40;53.70;;;;;;4933011;29;20043;-60
2023/06/03 12:50:23;;;;;;;5.07;1.30;;;35.90;37.70;;;;;;4932546;29;20043;-59
2023/06/03 12:52:49;;;;;;;5.25;1.45;;;37.20;23.80;;;;;;4931825;28;20044;-60
2023/06/03 12:55:18;;;;;;;6.22;1.20;;;38.40;24.30;;;;;;4938928;29;20249;-59
2023/06/03 12:57:48;;;;;;;5.35;1.67;;;39.40;22.90;;;;;;4913284;29;20039;-60
2023/06/03 13:00:19;;;;;;;5.65;1.30;;;40.70;19.80;;;;;;4938369;29;20043;-59
2023/06/03 13:02:56;;;;;;;5.55;1.20;;;41.20;15.80;;;;;;4936572;29;20083;-59
2023/06/03 13:05:22;;;;;;;3.92;1.20;;;42.20;24.10;;;;;;4916152;29;20681;-60
2023/06/03 13:07:49;;;;;;;5.18;1.50;;;42.70;14.00;;;;;;4908229;29;20069;-60
2023/06/03 13:10:16;;;;;;;6.45;1.30;;;42.30;12.70;;;;;;4938362;29;20065;-59
2023/06/03 13:12:43;;;;;;;5.53;1.40;;;42.80;12.10;;;;;;4911386;29;20054;-61
2023/06/03 13:15:09;;;;;;;5.18;1.60;;;43.70;14.40;;;;;;4938414;29;20043;-60
2023/06/03 13:17:36;;;;;;;5.28;1.40;;;43.80;8.00;;;;;;4938583;29;20050;-60
2023/06/03 13:20:07;;;;;;;5.68;1.40;;;44.10;12.40;;;;;;4932287;29;20040;-61
2023/06/03 13:22:40;;;;;;;6.07;1.70;;;44.10;10.00;;;;;;4933571;29;20047;-61
2023/06/03 13:25:07;;;;;;;3.05;1.30;;;43.50;12.00;;;;;;4931692;29;20059;-61
2023/06/03 13:27:33;;;;;;;4.85;1.10;;;44.10;1.10;;;;;;4938122;29;20788;-60
2023/06/03 13:29:59;;;;;;;5.60;1.25;;;44.10;1.00;;;;;;4930265;29;20528;-60
2023/06/03 13:32:25;;;;;;;4.53;1.20;;;44.40;1.00;;;;;;4910844;29;20062;-61
2023/06/03 13:34:52;;;;;;;3.72;1.20;;;45.00;1.00;;;;;;4936191;29;20051;-60
2023/06/03 13:37:18;;;;;;;3.20;1.08;;;45.00;1.00;;;;;;4923032;28;20059;-60
2023/06/03 13:39:44;;;;;;;4.28;1.30;;;45.40;1.00;;;;;;4926051;28;20058;-60
2023/06/03 13:42:10;;;;;;;4.95;1.30;;;45.60;1.00;;;;;;4909573;29;20052;-60
2023/06/03 13:44:36;;;;;;;3.95;1.42;;;46.00;1.00;;;;;;4932764;28;20763;-61
2023/06/03 13:47:03;;;;;;;4.10;1.20;;;46.20;1.00;;;;;;4931564;28;20039;-60
2023/06/03 13:49:29;;;;;;;4.60;1.23;;;46.20;1.00;;;;;;4901025;29;21299;-60
2023/06/03 13:51:55;;;;;;;4.97;1.60;;;46.10;1.00;;;;;;4933036;28;20121;-61
2023/06/03 13:54:21;;;;;;;4.53;1.60;;;45.70;1.00;;;;;;4937978;28;20208;-61
2023/06/03 13:56:50;;;;;;;3.75;1.27;;;46.30;1.00;;;;;;4922483;28;20051;-60
2023/06/03 13:59:16;;;;;;;5.22;1.20;;;46.30;1.00;;;;;;4925103;28;20047;-60
2023/06/03 14:01:41;;;;;;;3.85;1.27;;;46.40;1.00;;;;;;4930664;28;20170;-61
2023/06/03 14:04:07;;;;;;;3.90;1.20;;;46.40;1.00;;;;;;4934041;28;20039;-60
2023/06/03 14:06:33;;;;;;;5.05;1.30;;;46.60;1.00;;;;;;4930293;28;20532;-61
2023/06/03 14:08:59;;;;;;;5.82;1.30;;;46.80;1.00;;;;;;4935860;28;20050;-61
2023/06/03 14:11:25;;;;;;;5.00;1.30;;;46.50;1.00;;;;;;4937035;29;20906;-61
2023/06/03 14:13:50;;;;;;;4.38;1.50;;;46.70;1.00;;;;;;4937222;28;20146;-60
2023/06/03 14:16:16;;;;;;;3.90;1.10;;;47.00;1.00;;;;;;4921329;28;20050;-60
2023/06/03 14:18:42;;;;;;;3.63;1.10;;;47.10;1.00;;;;;;4922003;29;20050;-61
2023/06/03 14:21:08;;;;;;;3.13;1.10;;;47.10;1.00;;;;;;4937475;28;20149;-61
2023/06/03 14:23:33;;;;;;;2.80;1.00;;;47.20;1.00;;;;;;4937116;28;20567;-61
2023/06/03 14:26:01;;;;;;;3.22;1.10;;;47.20;1.00;;;;;;4935159;29;20109;-60
2023/06/03 14:28:27;;;;;;;3.25;1.13;;;46.80;1.00;;;;;;4918257;29;20090;-60
2023/06/03 14:30:54;;;;;;;4.80;1.40;;;46.90;1.00;;;;;;4936403;29;20853;-61
2023/06/03 14:33:23;;;;;;;5.43;1.70;;;47.00;1.00;;;;;;4936481;28;20114;-61